createdAt,value
2019-05-09T00:04:28.117Z,10.20
2019-05-09T00:07:16.117Z,10.20
2019-05-09T00:10:04.244Z,10.20
2019-05-09T00:12:54.108Z,10.20
2019-05-09T00:15:43.859Z,10.20
2019-05-09T00:18:33.739Z,10.20
2019-05-09T00:24:38.055Z,10.20
2019-05-09T00:27:17.136Z,10.20
2019-05-09T00:33:03.794Z,10.20
2019-05-09T00:35:53.433Z,10.20
2019-05-09T00:38:44.256Z,10.20
2019-05-09T00:41:33.128Z,10.20
2019-05-09T00:47:38.259Z,10.20
2019-05-09T00:50:29.420Z,10.20
2019-05-09T00:56:10.313Z,10.20
2019-05-09T00:58:58.320Z,10.20
2019-05-09T01:01:46.297Z,10.20
2019-05-09T01:04:34.643Z,10.20
2019-05-09T01:10:30.084Z,10.20
2019-05-09T01:13:18.301Z,10.10
2019-05-09T01:16:06.326Z,10.10
2019-05-09T01:18:54.722Z,10.10
2019-05-09T01:21:44.299Z,10.10
2019-05-09T01:27:16.554Z,10.10
2019-05-09T01:30:04.905Z,10.10
2019-05-09T01:33:13.655Z,10.10
2019-05-09T01:36:03.792Z,10.10
2019-05-09T01:38:53.812Z,10.10
2019-05-09T01:41:43.152Z,10.00
2019-05-09T01:44:33.299Z,10.00
2019-05-09T01:47:20.739Z,10.00
2019-05-09T01:50:08.759Z,10.00
2019-05-09T01:52:56.791Z,10.00
2019-05-09T01:56:03.954Z,10.10
2019-05-09T01:58:53.792Z,10.10
2019-05-09T02:01:43.427Z,10.10
2019-05-09T02:04:33.418Z,10.10
2019-05-09T02:07:21.134Z,10.00
2019-05-09T02:10:09.170Z,10.00
2019-05-09T02:12:57.128Z,10.00
2019-05-09T02:21:54.125Z,9.90
2019-05-09T02:24:44.070Z,9.90
2019-05-09T02:27:24.607Z,9.80
2019-05-09T02:30:05.746Z,9.80
2019-05-09T02:32:54.712Z,9.70
2019-05-09T02:35:52.881Z,9.70
2019-05-09T02:38:32.434Z,9.60
2019-05-09T02:41:20.408Z,9.60
2019-05-09T02:44:09.301Z,9.50
2019-05-09T02:47:18.007Z,9.50
2019-05-09T02:50:09.151Z,9.50
2019-05-09T02:52:39.613Z,9.40
2019-05-09T02:55:28.842Z,9.40
2019-05-09T02:58:20.277Z,9.30
2019-05-09T03:01:08.459Z,9.30
2019-05-09T03:03:39.455Z,9.30
2019-05-09T03:06:28.526Z,9.20
2019-05-09T03:09:19.038Z,9.20
2019-05-09T03:12:23.077Z,9.10
2019-05-09T03:14:58.757Z,9.10
2019-05-09T03:17:49.374Z,9.10
2019-05-09T03:20:58.269Z,9.10
2019-05-09T03:23:45.335Z,9.10
2019-05-09T03:32:29.698Z,9.10
2019-05-09T03:35:18.499Z,9.10
2019-05-09T03:38:08.186Z,9.10
2019-05-09T03:40:58.019Z,9.10
2019-05-09T03:43:48.321Z,9.00
2019-05-09T03:46:55.001Z,9.00
2019-05-09T03:49:43.135Z,9.00
2019-05-09T03:52:31.088Z,9.00
2019-05-09T04:01:14.326Z,8.90
2019-05-09T04:04:02.419Z,8.90
2019-05-09T04:06:50.400Z,8.90
2019-05-09T04:12:55.843Z,8.80
2019-05-09T04:15:37.963Z,8.70
2019-05-09T04:18:27.695Z,8.70
2019-05-09T04:20:57.416Z,8.70
2019-05-09T04:23:48.035Z,8.70
2019-05-09T04:26:57.476Z,8.70
2019-05-09T04:29:45.429Z,8.70
2019-05-09T04:32:33.483Z,8.60
2019-05-09T04:35:02.202Z,8.60
2019-05-09T04:37:31.252Z,8.60
2019-05-09T04:40:03.277Z,8.60
2019-05-09T04:42:34.943Z,8.60
2019-05-09T04:45:09.722Z,8.70
2019-05-09T04:47:39.379Z,8.70
2019-05-09T04:50:07.675Z,8.70
2019-05-09T04:52:39.882Z,8.70
2019-05-09T04:55:08.070Z,8.80
2019-05-09T04:57:38.227Z,8.80
2019-05-09T05:00:10.051Z,8.80
2019-05-09T05:02:42.036Z,8.90
2019-05-09T05:05:10.885Z,8.80
2019-05-09T05:07:39.762Z,8.90
2019-05-09T05:10:09.165Z,8.80
2019-05-09T05:12:38.170Z,8.80
2019-05-09T05:15:08.058Z,8.80
2019-05-09T05:17:37.771Z,8.90
2019-05-09T05:20:08.682Z,8.90
2019-05-09T05:22:58.092Z,8.90
2019-05-09T05:25:27.937Z,9.00
2019-05-09T05:27:58.057Z,9.00
2019-05-09T05:30:28.373Z,9.10
2019-05-09T05:33:03.783Z,9.10
2019-05-09T05:35:51.879Z,9.20
2019-05-09T05:38:20.657Z,9.20
2019-05-09T05:40:49.945Z,9.30
2019-05-09T05:43:19.059Z,9.40
2019-05-09T05:45:54.122Z,9.50
2019-05-09T05:48:27.927Z,9.50
2019-05-09T05:50:57.819Z,9.50
2019-05-09T05:53:27.780Z,9.60
2019-05-09T05:55:58.038Z,9.70
2019-05-09T05:58:28.235Z,9.70
2019-05-09T06:00:58.849Z,9.80
2019-05-09T06:03:28.353Z,9.90
2019-05-09T06:05:58.450Z,10.00
2019-05-09T06:08:27.694Z,10.10
2019-05-09T06:10:57.653Z,10.10
2019-05-09T06:13:27.545Z,10.20
2019-05-09T06:15:58.677Z,10.30
2019-05-09T06:18:27.635Z,10.30
2019-05-09T06:20:58.331Z,10.30
2019-05-09T06:23:28.285Z,10.50
2019-05-09T06:25:58.832Z,10.50
2019-05-09T06:28:27.843Z,10.50
2019-05-09T06:30:58.492Z,10.60
2019-05-09T06:33:28.618Z,10.60
2019-05-09T06:35:58.845Z,10.70
2019-05-09T06:38:28.325Z,10.70
2019-05-09T06:40:58.109Z,10.80
2019-05-09T06:43:29.605Z,10.90
2019-05-09T06:46:18.222Z,10.90
2019-05-09T06:48:47.930Z,10.90
2019-05-09T06:51:20.937Z,11.00
2019-05-09T06:53:48.813Z,11.00
2019-05-09T06:56:17.920Z,11.10
2019-05-09T06:58:48.127Z,11.20
2019-05-09T07:01:34.917Z,11.20
2019-05-09T07:04:09.263Z,11.40
2019-05-09T07:06:45.293Z,11.40
2019-05-09T07:09:30.197Z,11.50
2019-05-09T07:11:59.415Z,11.70
2019-05-09T07:14:33.101Z,11.80
2019-05-09T07:16:59.787Z,11.90
2019-05-09T07:19:28.595Z,11.90
2019-05-09T07:22:01.304Z,12.10
2019-05-09T07:24:30.267Z,12.10
2019-05-09T07:26:59.086Z,12.20
2019-05-09T07:29:29.005Z,12.30
2019-05-09T07:32:02.759Z,12.40
2019-05-09T07:34:38.274Z,12.40
2019-05-09T07:37:08.337Z,12.50
2019-05-09T07:39:37.950Z,12.50
2019-05-09T07:42:07.684Z,12.60
2019-05-09T07:44:48.016Z,12.60
2019-05-09T07:47:07.742Z,12.60
2019-05-09T07:49:37.737Z,12.60
2019-05-09T07:52:10.120Z,12.70
2019-05-09T07:54:37.792Z,12.80
2019-05-09T07:57:08.597Z,12.80
2019-05-09T07:59:38.897Z,12.80
2019-05-09T08:02:08.726Z,12.80
2019-05-09T08:04:38.590Z,12.80
2019-05-09T08:07:08.343Z,12.80
2019-05-09T08:09:38.757Z,13.00
2019-05-09T08:12:07.776Z,13.10
2019-05-09T08:14:37.783Z,13.30
2019-05-09T08:17:08.600Z,13.50
2019-05-09T08:19:38.028Z,13.70
2019-05-09T08:22:07.971Z,13.60
2019-05-09T08:24:38.047Z,13.80
2019-05-09T08:27:08.512Z,13.90
2019-05-09T08:29:38.717Z,13.80
2019-05-09T08:32:07.716Z,13.80
2019-05-09T08:34:37.825Z,13.80
2019-05-09T08:37:08.213Z,13.80
2019-05-09T08:39:38.261Z,13.90
2019-05-09T08:42:08.473Z,14.00
2019-05-09T08:44:38.331Z,14.00
2019-05-09T08:47:08.171Z,13.80
2019-05-09T08:49:47.448Z,13.70
2019-05-09T08:52:19.737Z,13.70
2019-05-09T08:54:53.345Z,14.00
2019-05-09T08:57:22.144Z,14.10
2019-05-09T08:59:51.026Z,14.30
2019-05-09T09:02:22.296Z,14.50
2019-05-09T09:04:50.602Z,14.60
2019-05-09T09:07:19.362Z,14.90
2019-05-09T09:09:48.405Z,14.90
2019-05-09T09:12:27.187Z,15.10
2019-05-09T09:14:47.989Z,15.20
2019-05-09T09:17:18.696Z,15.20
2019-05-09T09:19:47.955Z,15.40
2019-05-09T09:22:18.010Z,15.60
2019-05-09T09:24:48.224Z,15.70
2019-05-09T09:27:18.175Z,15.60
2019-05-09T09:29:48.074Z,15.40
2019-05-09T09:32:18.956Z,15.60
2019-05-09T09:34:48.450Z,15.70
2019-05-09T09:37:18.484Z,15.80
2019-05-09T09:39:48.791Z,15.80
2019-05-09T09:42:20.050Z,15.60
2019-05-09T09:44:48.364Z,15.70
2019-05-09T09:47:22.371Z,15.70
2019-05-09T09:49:49.117Z,15.70
2019-05-09T09:52:18.914Z,15.60
2019-05-09T09:54:48.252Z,15.50
2019-05-09T09:57:18.980Z,15.50
2019-05-09T09:59:54.700Z,15.50
2019-05-09T10:02:27.969Z,15.60
2019-05-09T10:04:56.905Z,16.00
2019-05-09T10:07:27.957Z,16.20
2019-05-09T10:09:58.390Z,16.30
2019-05-09T10:12:28.549Z,16.50
2019-05-09T10:15:03.492Z,16.60
2019-05-09T10:17:49.914Z,16.30
2019-05-09T10:20:29.147Z,16.00
2019-05-09T10:23:03.334Z,16.10
2019-05-09T10:25:27.825Z,16.20
2019-05-09T10:27:56.647Z,16.30
2019-05-09T10:30:32.796Z,16.40
2019-05-09T10:33:01.641Z,16.40
2019-05-09T10:35:49.670Z,16.20
2019-05-09T10:38:38.596Z,16.20
2019-05-09T10:41:11.406Z,16.10
2019-05-09T10:44:18.012Z,16.00
2019-05-09T10:50:08.500Z,16.20
2019-05-09T10:52:58.476Z,16.40
2019-05-09T10:55:48.123Z,16.30
2019-05-09T10:58:37.438Z,16.50
2019-05-09T11:04:14.539Z,16.60
2019-05-09T11:07:02.549Z,16.70
2019-05-09T11:09:50.757Z,16.80
2019-05-09T11:12:38.889Z,17.10
2019-05-09T11:15:26.880Z,17.20
2019-05-09T11:18:15.065Z,17.60
2019-05-09T11:21:03.213Z,17.70
2019-05-09T11:23:51.372Z,17.50
2019-05-09T11:26:20.104Z,17.40
2019-05-09T11:28:49.011Z,17.30
2019-05-09T11:31:30.149Z,17.30
2019-05-09T11:34:09.137Z,17.30
2019-05-09T11:36:57.936Z,17.50
2019-05-09T11:39:48.193Z,17.80
2019-05-09T11:42:17.852Z,17.50
2019-05-09T11:45:07.775Z,17.30
2019-05-09T11:47:58.316Z,17.00
2019-05-09T11:50:47.751Z,17.00
2019-05-09T11:53:36.737Z,17.00
2019-05-09T11:56:24.836Z,17.20
2019-05-09T11:59:12.843Z,17.20
2019-05-09T12:02:01.165Z,17.50
2019-05-09T12:04:49.278Z,17.60
2019-05-09T12:10:31.123Z,17.40
2019-05-09T12:13:19.128Z,17.10
2019-05-09T12:16:07.357Z,16.90
2019-05-09T12:18:55.439Z,16.70
2019-05-09T12:21:47.824Z,16.80
2019-05-09T12:24:33.163Z,16.90
2019-05-09T12:27:21.244Z,17.00
2019-05-09T12:30:09.423Z,17.20
2019-05-09T12:32:58.952Z,17.30
2019-05-09T12:35:47.773Z,17.60
2019-05-09T12:38:38.902Z,18.00
2019-05-09T12:41:30.947Z,17.80
2019-05-09T12:44:18.241Z,17.80
2019-05-09T12:47:06.534Z,17.90
2019-05-09T12:49:54.552Z,17.70
2019-05-09T12:52:42.553Z,17.50
2019-05-09T12:58:43.639Z,17.80
2019-05-09T13:01:31.746Z,17.80
2019-05-09T13:04:20.060Z,17.80
2019-05-09T13:07:08.545Z,17.90
2019-05-09T13:09:58.290Z,17.90
2019-05-09T13:12:48.605Z,17.80
2019-05-09T13:19:10.096Z,17.60
2019-05-09T13:24:53.883Z,17.80
2019-05-09T13:27:41.885Z,17.90
2019-05-09T13:30:37.811Z,18.10
2019-05-09T13:33:25.515Z,18.00
2019-05-09T13:36:13.579Z,18.10
2019-05-09T13:39:05.035Z,18.30
2019-05-09T13:41:51.512Z,18.00
2019-05-09T13:44:41.624Z,18.00
2019-05-09T13:47:29.361Z,17.90
2019-05-09T13:50:18.575Z,17.70
2019-05-09T13:53:07.620Z,17.80
2019-05-09T13:55:57.847Z,17.70
2019-05-09T13:58:48.773Z,17.70
2019-05-09T14:01:57.960Z,17.60
2019-05-09T14:04:48.366Z,17.50
2019-05-09T14:07:37.513Z,17.60
2019-05-09T14:10:24.952Z,17.40
2019-05-09T14:13:14.151Z,17.30
2019-05-09T14:16:15.664Z,17.00
2019-05-09T14:18:55.662Z,16.70
2019-05-09T14:21:42.912Z,16.60
2019-05-09T14:24:31.037Z,16.50
2019-05-09T14:27:19.177Z,16.50
2019-05-09T14:30:08.116Z,16.40
2019-05-09T14:32:49.847Z,16.30
2019-05-09T14:35:38.716Z,16.30
2019-05-09T14:38:26.995Z,16.20
2019-05-09T14:41:15.066Z,16.10
2019-05-09T14:44:03.063Z,16.10
2019-05-09T14:46:51.153Z,16.00
2019-05-09T14:49:44.674Z,16.10
2019-05-09T14:52:31.974Z,16.10
2019-05-09T14:55:00.868Z,16.20
2019-05-09T14:57:49.077Z,16.30
2019-05-09T15:00:38.646Z,16.50
2019-05-09T15:03:27.759Z,16.50
2019-05-09T15:06:18.232Z,16.70
2019-05-09T15:09:08.224Z,16.70
2019-05-09T15:11:58.427Z,16.80
2019-05-09T15:14:47.969Z,16.90
2019-05-09T15:17:36.943Z,16.80
2019-05-09T15:20:25.286Z,16.80
2019-05-09T15:23:13.413Z,16.70
2019-05-09T15:26:01.485Z,16.80
2019-05-09T15:31:43.078Z,16.60
2019-05-09T15:34:31.201Z,16.60
2019-05-09T15:37:19.384Z,16.60
2019-05-09T15:40:08.701Z,16.60
2019-05-09T15:42:58.817Z,16.60
2019-05-09T15:46:08.361Z,16.70
2019-05-09T15:48:58.125Z,16.70
2019-05-09T15:51:47.856Z,16.50
2019-05-09T15:54:38.459Z,16.50
2019-05-09T15:57:27.566Z,16.70
2019-05-09T16:03:10.988Z,16.70
2019-05-09T16:05:59.018Z,16.70
2019-05-09T16:08:28.805Z,16.80
2019-05-09T16:10:58.202Z,16.90
2019-05-09T16:13:28.465Z,16.90
2019-05-09T16:15:57.693Z,17.00
2019-05-09T16:18:28.844Z,17.00
2019-05-09T16:20:57.957Z,17.10
2019-05-09T16:23:29.025Z,17.20
2019-05-09T16:25:58.568Z,17.20
2019-05-09T16:28:27.751Z,17.80
2019-05-09T16:30:58.513Z,18.20
2019-05-09T16:33:27.900Z,18.50
2019-05-09T16:35:56.907Z,18.70
2019-05-09T16:38:41.271Z,18.80
2019-05-09T16:40:58.241Z,18.90
2019-05-09T16:43:26.782Z,19.20
2019-05-09T16:45:57.976Z,18.80
2019-05-09T16:48:27.658Z,18.90
2019-05-09T16:51:03.297Z,18.80
2019-05-09T16:53:27.825Z,18.50
2019-05-09T16:55:57.802Z,17.90
2019-05-09T16:58:27.431Z,18.00
2019-05-09T17:00:56.393Z,18.30
2019-05-09T17:03:25.157Z,18.10
2019-05-09T17:05:53.995Z,17.80
2019-05-09T17:08:22.875Z,17.50
2019-05-09T17:10:51.617Z,17.30
2019-05-09T17:13:20.471Z,17.10
2019-05-09T17:15:49.380Z,17.00
2019-05-09T17:18:18.946Z,16.80
2019-05-09T17:21:24.116Z,16.70
2019-05-09T17:23:49.536Z,16.60
2019-05-09T17:26:18.695Z,16.50
2019-05-09T17:28:48.496Z,16.40
2019-05-09T17:31:18.212Z,16.40
2019-05-09T17:33:48.519Z,16.30
2019-05-09T17:36:18.242Z,16.20
2019-05-09T17:38:47.847Z,16.30
2019-05-09T17:41:17.734Z,16.40
2019-05-09T17:43:47.549Z,16.40
2019-05-09T17:46:18.974Z,16.30
2019-05-09T17:48:47.957Z,16.40
2019-05-09T17:51:25.902Z,16.40
2019-05-09T17:53:51.976Z,16.60
2019-05-09T17:56:17.965Z,16.70
2019-05-09T17:58:48.531Z,16.60
2019-05-09T18:01:18.012Z,16.40
2019-05-09T18:03:48.026Z,16.40
2019-05-09T18:06:19.110Z,16.70
2019-05-09T18:08:48.549Z,16.90
2019-05-09T18:11:17.564Z,17.00
2019-05-09T18:13:48.077Z,17.00
2019-05-09T18:16:18.959Z,17.20
2019-05-09T18:18:48.355Z,17.20
2019-05-09T18:21:17.881Z,17.10
2019-05-09T18:23:47.841Z,17.00
2019-05-09T18:26:18.610Z,16.80
2019-05-09T18:28:48.031Z,16.60
2019-05-09T18:31:16.987Z,16.40
2019-05-09T18:33:53.109Z,16.30
2019-05-09T18:36:22.108Z,16.20
2019-05-09T18:38:51.086Z,16.00
2019-05-09T18:41:19.965Z,15.90
2019-05-09T18:43:48.778Z,15.80
2019-05-09T18:46:19.669Z,15.70
2019-05-09T18:48:48.213Z,15.60
2019-05-09T18:51:17.139Z,15.50
2019-05-09T18:53:46.385Z,15.40
2019-05-09T18:56:15.114Z,15.30
2019-05-09T18:58:44.168Z,15.30
2019-05-09T19:01:13.057Z,15.20
2019-05-09T19:03:41.818Z,15.20
2019-05-09T19:06:10.563Z,15.20
2019-05-09T19:08:39.342Z,15.20
2019-05-09T19:11:08.172Z,15.20
2019-05-09T19:13:37.045Z,15.20
2019-05-09T19:16:24.962Z,15.10
2019-05-09T19:19:11.857Z,15.10
2019-05-09T19:21:44.632Z,15.00
2019-05-09T19:24:13.397Z,15.00
2019-05-09T19:26:42.247Z,15.00
2019-05-09T19:29:11.069Z,15.00
2019-05-09T19:31:40.351Z,14.90
2019-05-09T19:34:09.103Z,14.90
2019-05-09T19:36:37.850Z,14.90
2019-05-09T19:39:10.014Z,14.80
2019-05-09T19:41:38.801Z,14.70
2019-05-09T19:44:07.675Z,14.60
2019-05-09T19:46:36.525Z,14.60
2019-05-09T19:49:05.490Z,14.60
2019-05-09T19:51:34.803Z,14.60
2019-05-09T19:54:03.668Z,14.60
2019-05-09T19:56:32.475Z,14.60
2019-05-09T19:59:01.213Z,14.60
2019-05-09T20:01:30.004Z,14.60
2019-05-09T20:03:58.922Z,14.50
2019-05-09T20:06:27.694Z,14.60
2019-05-09T20:08:56.446Z,14.60
2019-05-09T20:11:35.474Z,14.70
2019-05-09T20:14:22.406Z,14.60
2019-05-09T20:16:55.719Z,14.50
2019-05-09T20:19:23.753Z,14.50
2019-05-09T20:21:52.526Z,14.40
2019-05-09T20:24:21.351Z,14.30
2019-05-09T20:26:50.192Z,14.20
2019-05-09T20:29:19.080Z,14.10
2019-05-09T20:31:47.983Z,14.00
2019-05-09T20:34:16.744Z,13.80
2019-05-09T20:36:45.583Z,13.70
2019-05-09T20:39:14.613Z,13.70
2019-05-09T20:41:43.601Z,13.60
2019-05-09T20:44:12.625Z,13.50
2019-05-09T20:46:41.738Z,13.50
2019-05-09T20:49:10.921Z,13.50
2019-05-09T20:51:40.499Z,13.40
2019-05-09T20:54:20.594Z,13.40
2019-05-09T20:56:40.259Z,13.40
2019-05-09T20:59:09.125Z,13.40
2019-05-09T21:01:38.145Z,13.40
2019-05-09T21:04:07.099Z,13.30
2019-05-09T21:06:36.139Z,13.40
2019-05-09T21:09:06.525Z,13.40
2019-05-09T21:11:35.867Z,13.40
2019-05-09T21:14:04.817Z,13.40
2019-05-09T21:16:33.778Z,13.40
2019-05-09T21:19:02.811Z,13.40
2019-05-09T21:21:31.896Z,13.40
2019-05-09T21:24:00.815Z,13.30
2019-05-09T21:26:29.928Z,13.40
2019-05-09T21:28:58.858Z,13.30
2019-05-09T21:31:27.830Z,13.30
2019-05-09T21:33:56.967Z,13.20
2019-05-09T21:36:25.762Z,13.20
2019-05-09T21:38:54.561Z,13.20
2019-05-09T21:41:23.349Z,13.20
2019-05-09T21:43:52.062Z,13.20
2019-05-09T21:46:20.794Z,13.20
2019-05-09T21:48:49.600Z,13.20
2019-05-09T21:51:18.629Z,13.20
2019-05-09T21:53:47.385Z,13.20
2019-05-09T21:56:16.249Z,13.20
2019-05-09T21:58:45.074Z,13.30
2019-05-09T22:01:16.628Z,13.30
2019-05-09T22:03:45.457Z,13.20
2019-05-09T22:06:14.334Z,13.20
2019-05-09T22:08:43.166Z,13.10
2019-05-09T22:11:31.320Z,13.10
2019-05-09T22:14:19.331Z,13.10
2019-05-09T22:20:07.823Z,13.00
2019-05-09T22:22:55.870Z,13.00
2019-05-09T22:25:43.917Z,12.90
2019-05-09T22:28:31.978Z,12.90
2019-05-09T22:31:20.076Z,12.90
2019-05-09T22:33:58.916Z,12.80
2019-05-09T22:36:46.919Z,12.80
2019-05-09T22:39:34.892Z,12.80
2019-05-09T22:42:22.908Z,12.70
2019-05-09T22:45:10.924Z,12.70
2019-05-09T22:47:58.912Z,12.60
2019-05-09T22:50:46.957Z,12.60
2019-05-09T22:53:35.077Z,12.60
2019-05-09T22:56:23.113Z,12.60
2019-05-09T22:59:11.224Z,12.60
2019-05-09T23:01:59.520Z,12.50
2019-05-09T23:04:47.628Z,12.60
2019-05-09T23:07:35.880Z,12.60
2019-05-09T23:10:23.946Z,12.60
2019-05-09T23:13:12.075Z,12.60
2019-05-09T23:16:00.078Z,12.60
2019-05-09T23:18:48.154Z,12.60
2019-05-09T23:21:36.150Z,12.50
2019-05-09T23:27:22.423Z,12.50
2019-05-09T23:36:14.452Z,12.30
2019-05-09T23:39:21.571Z,12.30
2019-05-09T23:42:09.639Z,12.30
2019-05-09T23:44:57.741Z,12.20
2019-05-09T23:47:45.763Z,12.20
2019-05-09T23:50:33.798Z,12.10
2019-05-09T23:56:55.744Z,12.20
